createdAt,value
2022-10-02T00:01:51.999Z,100.00
2022-10-02T00:04:46.008Z,100.00
2022-10-02T00:07:15.467Z,100.00
2022-10-02T00:09:53.516Z,100.00
2022-10-02T00:12:24.535Z,100.00
2022-10-02T00:14:56.571Z,100.00
2022-10-02T00:17:26.579Z,100.00
2022-10-02T00:19:56.758Z,100.00
2022-10-02T00:22:48.396Z,100.00
2022-10-02T00:25:40.638Z,100.00
2022-10-02T00:28:25.400Z,100.00
2022-10-02T00:31:07.595Z,100.00
2022-10-02T00:33:43.270Z,100.00
2022-10-02T00:36:24.204Z,100.00
2022-10-02T00:39:28.451Z,100.00
2022-10-02T00:42:13.582Z,100.00
2022-10-02T00:45:32.337Z,100.00
2022-10-02T00:48:24.169Z,100.00
2022-10-02T00:51:13.629Z,100.00
2022-10-02T00:54:13.146Z,100.00
2022-10-02T00:57:01.531Z,100.00
2022-10-02T00:59:56.692Z,100.00
2022-10-02T01:02:32.222Z,100.00
2022-10-02T01:05:02.242Z,100.00
2022-10-02T01:07:29.056Z,100.00
2022-10-02T01:09:56.078Z,100.00
2022-10-02T01:12:23.949Z,100.00
2022-10-02T01:14:50.559Z,100.00
2022-10-02T01:17:25.419Z,100.00
2022-10-02T01:19:52.670Z,100.00
2022-10-02T01:22:45.657Z,100.00
2022-10-02T01:25:12.684Z,100.00
2022-10-02T01:27:39.729Z,100.00
2022-10-02T01:30:20.682Z,100.00
2022-10-02T01:32:52.491Z,100.00
2022-10-02T01:35:22.352Z,100.00
2022-10-02T01:37:51.324Z,100.00
2022-10-02T01:40:28.826Z,100.00
2022-10-02T01:43:00.565Z,100.00
2022-10-02T01:45:44.119Z,100.00
2022-10-02T01:48:16.705Z,100.00
2022-10-02T01:51:13.264Z,100.00
2022-10-02T01:53:47.522Z,100.00
2022-10-02T01:56:46.157Z,100.00
2022-10-02T01:59:31.710Z,100.00
2022-10-02T02:02:23.462Z,100.00
2022-10-02T02:05:02.086Z,100.00
2022-10-02T02:07:35.768Z,100.00
2022-10-02T02:10:25.373Z,100.00
2022-10-02T02:13:10.405Z,100.00
2022-10-02T02:15:43.682Z,100.00
2022-10-02T02:18:34.330Z,100.00
2022-10-02T02:21:09.973Z,100.00
2022-10-02T02:23:39.286Z,100.00
2022-10-02T02:26:12.415Z,100.00
2022-10-02T02:28:48.791Z,100.00
2022-10-02T02:31:21.064Z,100.00
2022-10-02T02:33:53.082Z,100.00
2022-10-02T02:36:24.302Z,100.00
2022-10-02T02:39:01.326Z,100.00
2022-10-02T02:41:33.135Z,100.00
2022-10-02T02:44:10.373Z,100.00
2022-10-02T02:47:04.823Z,100.00
2022-10-02T02:49:44.708Z,100.00
2022-10-02T02:52:18.545Z,100.00
2022-10-02T02:54:58.080Z,100.00
2022-10-02T02:57:30.244Z,100.00
2022-10-02T02:59:58.736Z,100.00
2022-10-02T03:02:25.470Z,100.00
2022-10-02T03:04:52.302Z,100.00
2022-10-02T03:07:19.475Z,100.00
2022-10-02T03:10:06.317Z,100.00
2022-10-02T03:12:59.455Z,100.00
2022-10-02T03:15:26.588Z,100.00
2022-10-02T03:18:20.764Z,100.00
2022-10-02T03:20:50.399Z,100.00
2022-10-02T03:23:22.626Z,100.00
2022-10-02T03:26:01.848Z,100.00
2022-10-02T03:28:54.335Z,100.00
2022-10-02T03:31:22.143Z,100.00
2022-10-02T03:33:51.062Z,100.00
2022-10-02T03:36:18.174Z,100.00
2022-10-02T03:38:53.432Z,100.00
2022-10-02T03:41:32.893Z,100.00
2022-10-02T03:43:59.615Z,100.00
2022-10-02T03:46:26.359Z,100.00
2022-10-02T03:48:53.164Z,100.00
2022-10-02T03:51:19.719Z,100.00
2022-10-02T03:53:46.768Z,100.00
2022-10-02T03:57:01.457Z,100.00
2022-10-02T04:00:01.555Z,100.00
2022-10-02T04:02:51.516Z,100.00
2022-10-02T04:05:33.943Z,100.00
2022-10-02T04:08:08.368Z,100.00
2022-10-02T04:11:05.825Z,100.00
2022-10-02T04:13:40.410Z,100.00
2022-10-02T04:16:14.975Z,100.00
2022-10-02T04:19:02.987Z,100.00
2022-10-02T04:21:56.636Z,100.00
2022-10-02T04:24:52.175Z,100.00
2022-10-02T04:27:26.005Z,100.00
2022-10-02T04:30:06.272Z,100.00
2022-10-02T04:32:35.149Z,100.00
2022-10-02T04:35:06.493Z,100.00
2022-10-02T04:37:53.725Z,100.00
2022-10-02T04:40:23.306Z,100.00
2022-10-02T04:43:24.890Z,100.00
2022-10-02T04:46:12.002Z,100.00
2022-10-02T04:49:03.107Z,100.00
2022-10-02T04:52:08.204Z,100.00
2022-10-02T04:54:48.650Z,100.00
2022-10-02T04:57:33.835Z,100.00
2022-10-02T05:00:09.505Z,100.00
2022-10-02T05:03:01.279Z,100.00
2022-10-02T05:05:53.295Z,100.00
2022-10-02T05:08:38.154Z,100.00
2022-10-02T05:11:27.259Z,100.00
2022-10-02T05:14:35.794Z,100.00
2022-10-02T05:17:42.359Z,100.00
2022-10-02T05:20:17.883Z,100.00
2022-10-02T05:23:10.904Z,100.00
2022-10-02T05:25:43.460Z,100.00
2022-10-02T05:28:30.328Z,100.00
2022-10-02T05:31:25.061Z,100.00
2022-10-02T05:33:54.653Z,100.00
2022-10-02T05:36:35.257Z,100.00
2022-10-02T05:39:05.053Z,100.00
2022-10-02T05:41:37.503Z,100.00
2022-10-02T05:44:24.471Z,100.00
2022-10-02T05:47:09.822Z,100.00
2022-10-02T05:49:41.865Z,100.00
2022-10-02T05:52:24.128Z,100.00
2022-10-02T05:55:03.601Z,100.00
2022-10-02T05:57:52.312Z,100.00
2022-10-02T06:00:40.279Z,100.00
2022-10-02T06:03:12.867Z,100.00
2022-10-02T06:05:45.467Z,100.00
2022-10-02T06:08:16.174Z,100.00
2022-10-02T06:10:48.691Z,100.00
2022-10-02T06:13:27.433Z,100.00
2022-10-02T06:15:57.195Z,100.00
2022-10-02T06:18:28.295Z,100.00
2022-10-02T06:21:06.898Z,100.00
2022-10-02T06:23:36.700Z,100.00
2022-10-02T06:26:10.969Z,100.00
2022-10-02T06:28:48.872Z,100.00
2022-10-02T06:31:27.991Z,100.00
2022-10-02T06:33:54.769Z,100.00
2022-10-02T06:37:03.668Z,100.00
2022-10-02T06:39:48.910Z,100.00
2022-10-02T06:42:35.663Z,100.00
2022-10-02T06:45:21.451Z,100.00
2022-10-02T06:48:16.130Z,100.00
2022-10-02T06:51:23.526Z,100.00
2022-10-02T06:54:19.208Z,100.00
2022-10-02T06:56:53.272Z,100.00
2022-10-02T06:59:50.759Z,100.00
2022-10-02T07:02:41.701Z,100.00
2022-10-02T07:05:53.385Z,100.00
2022-10-02T07:08:42.950Z,100.00
2022-10-02T07:11:12.251Z,100.00
2022-10-02T07:14:12.345Z,100.00
2022-10-02T07:16:45.460Z,100.00
2022-10-02T07:19:33.019Z,100.00
2022-10-02T07:22:25.904Z,100.00
2022-10-02T07:25:02.266Z,100.00
2022-10-02T07:27:41.451Z,100.00
2022-10-02T07:30:12.341Z,100.00
2022-10-02T07:32:47.714Z,100.00
2022-10-02T07:35:29.759Z,100.00
2022-10-02T07:38:08.239Z,100.00
2022-10-02T07:41:00.191Z,100.00
2022-10-02T07:43:45.588Z,100.00
2022-10-02T07:46:40.245Z,100.00
2022-10-02T07:49:48.743Z,97.08
2022-10-02T07:52:46.610Z,93.71
2022-10-02T07:55:21.701Z,89.83
2022-10-02T07:58:13.807Z,90.85
2022-10-02T08:00:51.556Z,90.28
2022-10-02T08:03:55.173Z,87.33
2022-10-02T08:06:22.206Z,87.14
2022-10-02T08:09:04.037Z,92.61
2022-10-02T08:11:49.800Z,92.29
2022-10-02T08:14:23.022Z,91.64
2022-10-02T08:16:52.700Z,93.06
2022-10-02T08:19:36.358Z,95.33
2022-10-02T08:22:26.511Z,95.53
2022-10-02T08:25:04.683Z,96.65
2022-10-02T08:27:53.828Z,94.11
2022-10-02T08:30:20.585Z,89.52
2022-10-02T08:32:48.173Z,87.01
2022-10-02T08:35:19.913Z,81.85
2022-10-02T08:38:13.072Z,84.87
2022-10-02T08:41:04.377Z,83.11
2022-10-02T08:43:37.362Z,85.43
2022-10-02T08:46:29.433Z,80.31
2022-10-02T08:49:28.972Z,77.79
2022-10-02T08:52:16.711Z,83.34
2022-10-02T08:54:59.414Z,78.64
2022-10-02T08:57:50.042Z,77.96
2022-10-02T09:00:25.262Z,76.61
2022-10-02T09:03:14.416Z,76.11
2022-10-02T09:06:17.957Z,72.76
2022-10-02T09:09:00.408Z,69.25
2022-10-02T09:11:39.305Z,75.57
2022-10-02T09:14:22.092Z,72.71
2022-10-02T09:17:05.704Z,75.36
2022-10-02T09:19:51.445Z,75.02
2022-10-02T09:22:36.962Z,74.60
2022-10-02T09:25:22.744Z,71.68
2022-10-02T09:28:14.365Z,70.75
2022-10-02T09:31:03.833Z,67.09
2022-10-02T09:33:45.495Z,67.71
2022-10-02T09:36:26.775Z,67.04
2022-10-02T09:39:35.418Z,69.20
2022-10-02T09:42:43.446Z,66.94
2022-10-02T09:45:25.252Z,66.45
2022-10-02T09:48:13.444Z,64.00
2022-10-02T09:51:16.613Z,66.96
2022-10-02T09:54:23.626Z,62.54
2022-10-02T09:57:17.916Z,63.94
2022-10-02T09:59:58.412Z,63.85
2022-10-02T10:02:46.960Z,64.74
2022-10-02T10:05:55.674Z,64.83
2022-10-02T10:09:03.650Z,66.61
2022-10-02T10:11:36.596Z,69.11
2022-10-02T10:14:21.582Z,73.14
2022-10-02T10:16:57.283Z,66.52
2022-10-02T10:20:02.498Z,69.65
2022-10-02T10:22:49.082Z,65.52
2022-10-02T10:25:30.156Z,65.97
2022-10-02T10:28:21.901Z,63.56
2022-10-02T10:30:57.589Z,61.55
2022-10-02T10:33:34.630Z,63.54
2022-10-02T10:36:46.900Z,63.62
2022-10-02T10:39:31.762Z,57.40
2022-10-02T10:42:25.640Z,59.00
2022-10-02T10:45:43.596Z,56.88
2022-10-02T10:48:37.291Z,55.84
2022-10-02T10:51:30.629Z,54.27
2022-10-02T10:54:22.940Z,54.78
2022-10-02T10:56:57.075Z,56.25
2022-10-02T10:59:54.163Z,55.05
2022-10-02T11:02:44.101Z,56.29
2022-10-02T11:05:31.891Z,56.09
2022-10-02T11:08:33.902Z,55.61
2022-10-02T11:11:24.377Z,55.05
2022-10-02T11:14:15.437Z,56.88
2022-10-02T11:17:19.761Z,55.04
2022-10-02T11:20:00.010Z,55.32
2022-10-02T11:22:26.602Z,56.70
2022-10-02T11:25:28.697Z,59.65
2022-10-02T11:28:04.016Z,54.81
2022-10-02T11:31:06.658Z,55.07
2022-10-02T11:34:01.554Z,56.44
2022-10-02T11:37:04.003Z,55.64
2022-10-02T11:39:50.543Z,56.44
2022-10-02T11:42:38.737Z,55.48
2022-10-02T11:45:44.454Z,54.78
2022-10-02T11:48:21.601Z,55.08
2022-10-02T11:51:10.225Z,53.72
2022-10-02T11:53:57.807Z,55.45
2022-10-02T11:56:56.831Z,58.48
2022-10-02T11:59:32.071Z,56.08
2022-10-02T12:02:16.255Z,58.12
2022-10-02T12:04:52.547Z,56.68
2022-10-02T12:07:45.184Z,54.38
2022-10-02T12:10:28.310Z,56.40
2022-10-02T12:13:16.424Z,54.78
2022-10-02T12:15:56.247Z,55.08
2022-10-02T12:18:38.822Z,56.12
2022-10-02T12:21:39.106Z,57.68
2022-10-02T12:24:54.989Z,56.99
2022-10-02T12:27:44.924Z,59.78
2022-10-02T12:30:25.986Z,54.37
2022-10-02T12:33:04.165Z,56.62
2022-10-02T12:35:51.153Z,56.53
2022-10-02T12:38:20.748Z,57.00
2022-10-02T12:40:56.118Z,58.56
2022-10-02T12:43:44.743Z,54.43
2022-10-02T12:46:49.157Z,53.09
2022-10-02T12:49:31.580Z,53.21
2022-10-02T12:52:10.261Z,54.63
2022-10-02T12:54:58.222Z,55.45
2022-10-02T12:57:55.107Z,56.51
2022-10-02T13:00:40.945Z,56.32
2022-10-02T13:03:23.307Z,58.13
2022-10-02T13:06:37.355Z,56.86
2022-10-02T13:09:39.650Z,56.12
2022-10-02T13:12:31.121Z,55.87
2022-10-02T13:15:25.150Z,54.53
2022-10-02T13:17:58.882Z,56.18
2022-10-02T13:21:06.613Z,54.31
2022-10-02T13:24:10.820Z,54.36
2022-10-02T13:27:02.400Z,54.81
2022-10-02T13:29:35.689Z,56.26
2022-10-02T13:32:25.733Z,57.23
2022-10-02T13:34:52.360Z,57.64
2022-10-02T13:37:37.852Z,56.23
2022-10-02T13:40:22.207Z,56.00
2022-10-02T13:42:52.053Z,53.55
2022-10-02T13:45:23.349Z,53.50
2022-10-02T13:48:05.743Z,52.33
2022-10-02T13:50:57.023Z,52.22
2022-10-02T13:53:39.943Z,52.51
2022-10-02T13:56:36.734Z,52.18
2022-10-02T13:59:35.678Z,52.36
2022-10-02T14:02:34.464Z,50.81
2022-10-02T14:05:19.048Z,53.13
2022-10-02T14:08:05.721Z,51.53
2022-10-02T14:11:05.697Z,52.95
2022-10-02T14:13:43.851Z,53.75
2022-10-02T14:16:33.516Z,56.80
2022-10-02T14:19:24.714Z,53.50
2022-10-02T14:22:15.644Z,51.33
2022-10-02T14:25:03.896Z,51.57
2022-10-02T14:27:58.314Z,50.24
2022-10-02T14:30:55.170Z,49.19
2022-10-02T14:33:24.831Z,49.65
2022-10-02T14:36:15.805Z,48.06
2022-10-02T14:39:04.184Z,46.42
2022-10-02T14:41:58.922Z,46.77
2022-10-02T14:44:39.957Z,47.87
2022-10-02T14:47:41.820Z,48.84
2022-10-02T14:50:23.554Z,48.71
2022-10-02T14:53:47.701Z,49.80
2022-10-02T14:56:35.972Z,50.71
2022-10-02T14:59:11.308Z,51.98
2022-10-02T15:02:02.917Z,51.83
2022-10-02T15:04:36.073Z,51.52
2022-10-02T15:07:13.740Z,51.52
2022-10-02T15:10:02.562Z,50.90
2022-10-02T15:12:43.912Z,50.97
2022-10-02T15:15:16.823Z,51.05
2022-10-02T15:18:03.472Z,51.90
2022-10-02T15:21:00.642Z,53.32
2022-10-02T15:23:33.485Z,53.46
2022-10-02T15:26:21.898Z,54.12
2022-10-02T15:29:21.498Z,55.86
2022-10-02T15:32:40.475Z,55.77
2022-10-02T15:35:25.077Z,55.89
2022-10-02T15:38:38.945Z,55.25
2022-10-02T15:45:18.260Z,57.86
2022-10-02T15:48:18.284Z,60.16
2022-10-02T15:50:56.989Z,58.66
2022-10-02T15:54:01.447Z,60.83
2022-10-02T15:56:50.126Z,61.63
2022-10-02T15:59:38.293Z,62.91
2022-10-02T16:02:41.967Z,64.39
2022-10-02T16:05:42.960Z,65.73
2022-10-02T16:08:21.743Z,68.61
2022-10-02T16:11:18.990Z,69.12
2022-10-02T16:14:11.864Z,70.23
2022-10-02T16:16:41.928Z,70.97
2022-10-02T16:19:30.454Z,73.49
2022-10-02T16:22:18.676Z,75.31
2022-10-02T16:25:07.050Z,75.51
2022-10-02T16:28:15.033Z,73.47
2022-10-02T16:30:50.733Z,74.47
2022-10-02T16:33:17.547Z,73.51
2022-10-02T16:35:51.614Z,71.13
2022-10-02T16:38:37.923Z,70.27
2022-10-02T16:41:24.629Z,71.18
2022-10-02T16:44:25.339Z,73.64
2022-10-02T16:47:00.874Z,74.12
2022-10-02T16:49:51.662Z,76.07
2022-10-02T16:52:57.516Z,79.46
2022-10-02T16:55:37.216Z,79.42
2022-10-02T16:58:27.395Z,81.02
2022-10-02T17:01:07.239Z,83.07
2022-10-02T17:03:45.089Z,84.05
2022-10-02T17:06:29.504Z,86.41
2022-10-02T17:09:17.552Z,88.97
2022-10-02T17:12:21.161Z,89.25
2022-10-02T17:14:57.038Z,89.20
2022-10-02T17:17:42.630Z,88.83
2022-10-02T17:20:26.033Z,90.61
2022-10-02T17:23:00.513Z,88.90
2022-10-02T17:25:51.885Z,89.00
2022-10-02T17:28:32.077Z,89.33
2022-10-02T17:31:01.823Z,88.70
2022-10-02T17:33:43.974Z,88.22
2022-10-02T17:36:22.704Z,89.87
2022-10-02T17:39:13.850Z,90.21
2022-10-02T17:41:53.759Z,89.46
2022-10-02T17:44:25.926Z,88.66
2022-10-02T17:47:14.315Z,88.53
2022-10-02T17:50:19.166Z,90.49
2022-10-02T17:53:20.549Z,89.95
2022-10-02T17:56:28.566Z,88.85
2022-10-02T17:59:20.210Z,89.48
2022-10-02T18:02:06.657Z,92.26
2022-10-02T18:04:39.375Z,92.03
2022-10-02T18:07:32.265Z,96.24
2022-10-02T18:10:17.697Z,98.29
2022-10-02T18:13:17.036Z,98.59
2022-10-02T18:16:05.416Z,97.71
2022-10-02T18:19:14.508Z,93.67
2022-10-02T18:22:06.916Z,91.46
2022-10-02T18:24:48.681Z,90.49
2022-10-02T18:27:50.680Z,92.70
2022-10-02T18:30:26.163Z,93.86
2022-10-02T18:33:25.366Z,91.75
2022-10-02T18:36:40.842Z,93.04
2022-10-02T18:39:26.117Z,93.21
2022-10-02T18:41:59.860Z,95.15
2022-10-02T18:44:52.124Z,95.13
2022-10-02T18:47:31.490Z,96.51
2022-10-02T18:50:39.841Z,97.63
2022-10-02T18:53:20.172Z,98.85
2022-10-02T18:56:07.644Z,100.00
2022-10-02T18:58:49.368Z,100.00
2022-10-02T19:01:35.105Z,100.00
2022-10-02T19:04:26.515Z,100.00
2022-10-02T19:07:09.649Z,100.00
2022-10-02T19:09:36.584Z,100.00
2022-10-02T19:12:22.203Z,100.00
2022-10-02T19:14:55.869Z,100.00
2022-10-02T19:17:26.018Z,100.00
2022-10-02T19:19:56.304Z,100.00
2022-10-02T19:22:30.388Z,100.00
2022-10-02T19:25:08.164Z,100.00
2022-10-02T19:27:37.587Z,100.00
2022-10-02T19:30:07.922Z,100.00
2022-10-02T19:32:41.408Z,100.00
2022-10-02T19:35:10.965Z,100.00
2022-10-02T19:37:43.242Z,100.00
2022-10-02T19:40:19.209Z,100.00
2022-10-02T19:42:50.085Z,100.00
2022-10-02T19:45:27.485Z,100.00
2022-10-02T19:47:59.886Z,100.00
2022-10-02T19:50:47.341Z,100.00
2022-10-02T19:53:24.521Z,100.00
2022-10-02T19:55:57.429Z,100.00
2022-10-02T19:58:47.100Z,100.00
2022-10-02T20:01:38.047Z,100.00
2022-10-02T20:04:06.225Z,100.00
2022-10-02T20:06:37.726Z,100.00
2022-10-02T20:09:20.145Z,100.00
2022-10-02T20:11:51.129Z,100.00
2022-10-02T20:14:30.431Z,100.00
2022-10-02T20:17:09.252Z,100.00
2022-10-02T20:19:45.248Z,100.00
2022-10-02T20:22:41.467Z,100.00
2022-10-02T20:25:13.320Z,100.00
2022-10-02T20:28:05.103Z,100.00
2022-10-02T20:31:12.634Z,100.00
2022-10-02T20:33:46.555Z,100.00
2022-10-02T20:36:19.505Z,100.00
2022-10-02T20:39:06.906Z,100.00
2022-10-02T20:41:43.380Z,100.00
2022-10-02T20:44:12.906Z,100.00
2022-10-02T20:46:45.868Z,100.00
2022-10-02T20:49:24.623Z,100.00
2022-10-02T20:52:22.281Z,100.00
2022-10-02T20:55:31.208Z,100.00
2022-10-02T20:58:21.047Z,100.00
2022-10-02T21:01:23.187Z,100.00
2022-10-02T21:04:08.375Z,100.00
2022-10-02T21:06:50.638Z,100.00
2022-10-02T21:09:43.440Z,100.00
2022-10-02T21:12:38.026Z,100.00
2022-10-02T21:15:39.135Z,100.00
2022-10-02T21:18:18.725Z,100.00
2022-10-02T21:21:10.187Z,100.00
2022-10-02T21:24:26.682Z,100.00
2022-10-02T21:27:06.897Z,100.00
2022-10-02T21:30:02.818Z,100.00
2022-10-02T21:32:35.681Z,100.00
2022-10-02T21:35:46.708Z,100.00
2022-10-02T21:38:43.328Z,100.00
2022-10-02T21:41:28.379Z,100.00
2022-10-02T21:44:19.859Z,100.00
2022-10-02T21:47:11.386Z,100.00
2022-10-02T21:50:15.693Z,100.00
2022-10-02T21:53:17.851Z,100.00
2022-10-02T21:55:47.659Z,100.00
2022-10-02T21:58:20.389Z,100.00
2022-10-02T22:01:21.302Z,100.00
2022-10-02T22:03:56.731Z,100.00
2022-10-02T22:07:02.925Z,100.00
2022-10-02T22:10:03.084Z,100.00
2022-10-02T22:13:01.304Z,100.00
2022-10-02T22:15:50.299Z,100.00
2022-10-02T22:18:42.539Z,100.00
2022-10-02T22:21:37.425Z,100.00
2022-10-02T22:24:19.581Z,100.00
2022-10-02T22:27:31.153Z,100.00
2022-10-02T22:29:58.949Z,100.00
2022-10-02T22:32:56.276Z,100.00
2022-10-02T22:35:51.930Z,100.00
2022-10-02T22:38:26.025Z,100.00
2022-10-02T22:40:58.027Z,100.00
2022-10-02T22:43:48.284Z,100.00
2022-10-02T22:46:41.552Z,100.00
2022-10-02T22:49:43.251Z,100.00
2022-10-02T22:52:21.758Z,100.00
2022-10-02T22:55:03.811Z,100.00
2022-10-02T22:57:43.816Z,100.00
2022-10-02T23:00:19.020Z,100.00
2022-10-02T23:02:58.953Z,100.00
2022-10-02T23:05:46.734Z,100.00
2022-10-02T23:08:48.175Z,100.00
2022-10-02T23:11:22.296Z,100.00
2022-10-02T23:14:01.642Z,100.00
2022-10-02T23:16:35.240Z,100.00
2022-10-02T23:19:25.526Z,100.00
2022-10-02T23:22:05.253Z,100.00
2022-10-02T23:24:38.724Z,100.00
2022-10-02T23:27:09.454Z,100.00
2022-10-02T23:29:51.248Z,100.00
2022-10-02T23:32:40.581Z,100.00
2022-10-02T23:35:38.623Z,100.00
2022-10-02T23:38:30.153Z,100.00
2022-10-02T23:41:47.116Z,100.00
2022-10-02T23:44:28.790Z,100.00
2022-10-02T23:46:55.898Z,100.00
2022-10-02T23:49:32.184Z,100.00
2022-10-02T23:52:08.297Z,100.00
2022-10-02T23:54:47.188Z,100.00
2022-10-02T23:57:27.663Z,100.00
